Time;durP1;ratioP1;P1;durP2;ratioP2;P2;SDS_P1;SDS_P2;PMS_P1;PMS_P2;Temp;Humidity;BMP_temperature;BMP_pressure;BME280_temperature;BME280_humidity;BME280_pressure;Samples;Min_cycle;Max_cycle;Signal;HPM_P1;HPM_P2
2021/04/24 00:01:45;;;;;;;11.97;7.57;;;6.00;97.00;;;;;;4382367;32;20552;-61
2021/04/24 00:04:11;;;;;;;16.00;7.30;;;6.00;97.20;;;;;;4380658;32;20156;-61
2021/04/24 00:06:38;;;;;;;20.67;7.33;;;5.90;97.10;;;;;;4378449;32;20261;-61
2021/04/24 00:09:05;;;;;;;14.00;8.00;;;6.00;97.30;;;;;;4386786;32;20156;-60
2021/04/24 00:11:35;;;;;;;14.50;7.40;;;5.90;97.00;;;;;;4378887;32;20208;-60
2021/04/24 00:14:01;;;;;;;13.23;7.10;;;5.90;97.20;;;;;;4386344;32;20152;-60
2021/04/24 00:16:28;;;;;;;24.13;8.43;;;5.90;96.90;;;;;;4380288;32;20232;-60
2021/04/24 00:18:54;;;;;;;16.77;8.43;;;5.90;97.00;;;;;;4380856;32;20513;-60
2021/04/24 00:21:21;;;;;;;14.33;7.70;;;5.80;97.20;;;;;;4390061;32;20203;-61
2021/04/24 00:23:47;;;;;;;17.43;8.37;;;5.80;97.30;;;;;;4384457;32;20533;-60
2021/04/24 00:26:13;;;;;;;18.37;8.43;;;5.80;97.20;;;;;;4381418;32;20207;-61
2021/04/24 00:28:40;;;;;;;19.17;9.07;;;5.80;97.20;;;;;;4382439;32;20543;-61
2021/04/24 00:31:06;;;;;;;13.87;8.67;;;5.80;97.10;;;;;;4383831;32;20220;-61
2021/04/24 00:33:33;;;;;;;17.67;8.50;;;5.70;97.40;;;;;;4384105;32;20172;-61
2021/04/24 00:36:04;;;;;;;17.43;9.53;;;5.70;97.50;;;;;;4378482;32;20212;-61
2021/04/24 00:38:31;;;;;;;17.60;8.90;;;5.70;97.70;;;;;;4383465;32;20255;-61
2021/04/24 00:41:00;;;;;;;16.17;8.50;;;5.60;97.70;;;;;;4376079;32;20179;-61
2021/04/24 00:43:27;;;;;;;15.20;9.03;;;5.70;97.60;;;;;;4378151;32;20219;-60
2021/04/24 00:45:53;;;;;;;19.27;8.80;;;5.60;97.60;;;;;;4391543;32;20163;-61
2021/04/24 00:48:20;;;;;;;24.23;10.33;;;5.60;97.80;;;;;;4389077;32;20636;-60
2021/04/24 00:50:47;;;;;;;16.13;8.63;;;5.50;98.00;;;;;;4385129;32;20231;-60
2021/04/24 00:53:14;;;;;;;15.17;8.07;;;5.50;97.90;;;;;;4377670;32;20191;-60
2021/04/24 00:55:41;;;;;;;19.60;10.30;;;5.50;98.00;;;;;;4381963;32;20610;-62
2021/04/24 00:58:10;;;;;;;24.37;9.27;;;5.40;97.60;;;;;;4391616;32;20809;-61
2021/04/24 01:00:36;;;;;;;18.20;8.90;;;5.40;97.90;;;;;;4378974;32;20187;-60
2021/04/24 01:03:03;;;;;;;20.40;9.40;;;5.40;98.00;;;;;;4378652;32;20176;-60
2021/04/24 01:05:32;;;;;;;17.00;9.00;;;5.40;97.80;;;;;;4377660;32;20164;-61
2021/04/24 01:07:59;;;;;;;16.27;8.70;;;5.30;97.90;;;;;;4384301;32;20219;-59
2021/04/24 01:10:27;;;;;;;21.23;9.97;;;5.30;98.00;;;;;;4386578;32;20168;-60
2021/04/24 01:12:54;;;;;;;15.37;9.40;;;5.30;98.20;;;;;;4380539;32;20602;-59
2021/04/24 01:15:21;;;;;;;17.67;10.17;;;5.30;98.30;;;;;;4377832;32;20203;-59
2021/04/24 01:17:47;;;;;;;18.47;8.77;;;5.30;98.10;;;;;;4380314;32;20176;-59
2021/04/24 01:20:15;;;;;;;17.47;9.80;;;5.30;98.00;;;;;;4381446;32;20185;-59
2021/04/24 01:22:43;;;;;;;19.37;9.30;;;5.20;98.30;;;;;;4388831;32;20216;-59
2021/04/24 01:25:14;;;;;;;18.60;8.87;;;5.20;98.30;;;;;;4381718;32;20180;-59
2021/04/24 01:27:40;;;;;;;21.50;9.57;;;5.20;98.30;;;;;;4382050;32;20156;-60
2021/04/24 01:30:09;;;;;;;19.80;9.50;;;5.10;98.50;;;;;;4389647;32;20270;-60
2021/04/24 01:32:37;;;;;;;19.40;9.57;;;5.10;98.50;;;;;;4390048;32;20269;-60
2021/04/24 01:35:06;;;;;;;21.40;9.37;;;5.10;98.40;;;;;;4377517;32;20204;-59
2021/04/24 01:37:33;;;;;;;22.20;9.73;;;5.20;98.50;;;;;;4391094;32;20159;-59
2021/04/24 01:40:01;;;;;;;21.40;10.13;;;5.20;98.40;;;;;;4379145;32;20569;-61
2021/04/24 01:42:27;;;;;;;20.83;9.57;;;5.20;98.40;;;;;;4386633;32;20203;-60
2021/04/24 01:44:54;;;;;;;18.30;9.43;;;5.20;98.40;;;;;;4381844;32;20179;-60
2021/04/24 01:47:21;;;;;;;18.93;8.60;;;5.20;98.40;;;;;;4383738;32;20175;-60
2021/04/24 01:49:47;;;;;;;17.50;8.73;;;5.20;98.40;;;;;;4380332;32;20167;-61
2021/04/24 01:52:13;;;;;;;18.03;9.80;;;5.20;98.40;;;;;;4386394;32;20531;-60
2021/04/24 01:54:39;;;;;;;18.37;9.80;;;5.10;98.30;;;;;;4388771;32;20225;-60
2021/04/24 01:57:07;;;;;;;18.20;9.63;;;5.00;98.50;;;;;;4378965;32;20176;-59
2021/04/24 01:59:36;;;;;;;20.77;9.13;;;5.10;98.50;;;;;;4388365;32;20294;-59
2021/04/24 02:02:03;;;;;;;22.90;10.37;;;5.00;98.50;;;;;;4390742;32;20203;-61
2021/04/24 02:04:30;;;;;;;19.97;10.03;;;5.00;98.60;;;;;;4386343;32;20152;-61
2021/04/24 02:06:56;;;;;;;22.00;10.30;;;5.00;98.70;;;;;;4380358;32;20188;-61
2021/04/24 02:09:24;;;;;;;19.87;9.53;;;5.00;98.80;;;;;;4383797;32;20160;-60
2021/04/24 02:12:03;;;;;;;17.97;10.17;;;5.00;98.70;;;;;;4379148;32;20219;-59
2021/04/24 02:14:30;;;;;;;22.43;10.83;;;5.00;98.70;;;;;;4385437;32;20584;-60
2021/04/24 02:16:56;;;;;;;19.53;9.90;;;4.90;98.80;;;;;;4383860;32;20231;-59
2021/04/24 02:19:23;;;;;;;23.00;10.73;;;5.00;98.60;;;;;;4379189;32;20171;-59
2021/04/24 02:21:51;;;;;;;20.53;10.43;;;4.90;98.70;;;;;;4379920;32;20588;-60
2021/04/24 02:24:18;;;;;;;20.03;9.40;;;4.90;98.60;;;;;;4385677;32;20192;-59
2021/04/24 02:26:44;;;;;;;16.20;9.47;;;4.90;98.80;;;;;;4389554;32;20225;-59
2021/04/24 02:29:16;;;;;;;17.47;9.10;;;4.90;98.90;;;;;;4376593;32;20177;-60
2021/04/24 02:31:43;;;;;;;21.13;10.40;;;4.80;98.50;;;;;;4389313;32;20211;-60
2021/04/24 02:34:09;;;;;;;18.77;10.23;;;4.90;98.80;;;;;;4382703;32;20679;-58
2021/04/24 02:36:39;;;;;;;24.33;9.83;;;4.80;98.80;;;;;;4378387;32;20176;-61
2021/04/24 02:39:06;;;;;;;19.60;9.77;;;4.80;98.60;;;;;;4376769;32;20190;-60
2021/04/24 02:41:32;;;;;;;20.13;9.53;;;4.80;98.70;;;;;;4378619;32;20499;-60
2021/04/24 02:43:58;;;;;;;20.97;9.90;;;4.80;98.90;;;;;;4379095;32;20215;-60
2021/04/24 02:46:25;;;;;;;18.93;9.33;;;4.80;98.90;;;;;;4387040;32;20220;-60
2021/04/24 02:48:52;;;;;;;21.63;10.67;;;4.70;98.90;;;;;;4389971;32;20204;-60
2021/04/24 02:51:18;;;;;;;18.70;9.90;;;4.70;99.20;;;;;;4385925;32;20282;-61
2021/04/24 02:53:44;;;;;;;19.57;11.00;;;4.70;99.40;;;;;;4385334;32;20172;-60
2021/04/24 02:56:12;;;;;;;26.87;10.93;;;4.60;99.70;;;;;;4378920;32;20204;-60
2021/04/24 02:58:39;;;;;;;19.97;10.27;;;4.70;99.60;;;;;;4388292;32;20258;-58
2021/04/24 03:01:06;;;;;;;17.00;10.03;;;4.70;99.60;;;;;;4384809;32;20186;-60
2021/04/24 03:03:32;;;;;;;22.23;10.40;;;4.70;99.50;;;;;;4377561;32;20200;-59
2021/04/24 03:05:59;;;;;;;20.33;10.13;;;4.60;99.50;;;;;;4379638;32;20188;-60
2021/04/24 03:08:25;;;;;;;17.27;9.27;;;4.70;99.70;;;;;;4381052;32;20191;-60
2021/04/24 03:10:57;;;;;;;19.57;9.47;;;4.70;99.60;;;;;;4375872;32;20697;-59
2021/04/24 03:13:23;;;;;;;19.23;10.17;;;4.70;99.60;;;;;;4376874;32;20184;-65
2021/04/24 03:15:49;;;;;;;20.50;10.20;;;4.70;99.70;;;;;;4382424;32;20220;-59
2021/04/24 03:18:16;;;;;;;24.87;11.63;;;4.60;99.50;;;;;;4382722;32;20230;-61
2021/04/24 03:20:42;;;;;;;21.10;10.20;;;4.60;99.70;;;;;;4383826;32;20224;-59
2021/04/24 03:23:09;;;;;;;21.47;9.93;;;4.60;99.80;;;;;;4387462;32;20193;-60
2021/04/24 03:25:36;;;;;;;20.27;10.87;;;4.70;99.80;;;;;;4388125;32;20179;-63
2021/04/24 03:28:02;;;;;;;18.50;9.87;;;4.60;99.80;;;;;;4389339;32;20153;-59
2021/04/24 03:30:29;;;;;;;18.40;9.90;;;4.60;99.80;;;;;;4375873;32;20203;-64
2021/04/24 03:32:56;;;;;;;21.37;11.00;;;4.50;99.90;;;;;;4378116;32;20198;-62
2021/04/24 03:35:22;;;;;;;19.57;10.73;;;4.50;99.90;;;;;;4384684;32;20228;-61
2021/04/24 03:37:48;;;;;;;17.80;10.07;;;4.50;99.90;;;;;;4376418;32;20259;-64
2021/04/24 03:40:16;;;;;;;21.47;9.90;;;4.50;99.90;;;;;;4377274;32;20611;-64
2021/04/24 03:42:43;;;;;;;20.53;10.50;;;4.50;99.90;;;;;;4379288;32;20203;-59
2021/04/24 03:45:18;;;;;;;24.87;11.63;;;4.40;99.90;;;;;;4383289;32;20593;-60
2021/04/24 03:47:45;;;;;;;23.17;11.33;;;4.40;99.90;;;;;;4375690;32;20161;-64
2021/04/24 03:50:13;;;;;;;20.50;10.77;;;4.30;99.90;;;;;;4376574;32;20212;-61
2021/04/24 03:52:39;;;;;;;17.97;10.73;;;4.30;99.90;;;;;;4380510;32;20152;-58
2021/04/24 03:55:06;;;;;;;24.93;12.17;;;4.30;99.90;;;;;;4378890;32;20184;-61
2021/04/24 03:57:34;;;;;;;20.53;10.40;;;4.40;99.90;;;;;;4375691;32;20299;-64
2021/04/24 04:00:00;;;;;;;19.93;10.87;;;4.30;99.90;;;;;;4376167;32;20560;-62
2021/04/24 04:02:26;;;;;;;23.03;11.70;;;4.40;99.90;;;;;;4384677;32;20199;-61
2021/04/24 04:04:53;;;;;;;22.93;10.93;;;4.30;99.90;;;;;;4390334;32;20173;-63
2021/04/24 04:07:19;;;;;;;23.67;12.57;;;4.30;99.90;;;;;;4384397;32;20195;-59
2021/04/24 04:09:45;;;;;;;26.93;11.70;;;4.40;99.90;;;;;;4389749;32;20184;-63
2021/04/24 04:12:12;;;;;;;26.77;12.57;;;4.40;99.90;;;;;;4388096;32;20216;-61
2021/04/24 04:14:39;;;;;;;20.00;10.80;;;4.40;99.90;;;;;;4388536;32;20234;-60
2021/04/24 04:17:05;;;;;;;22.03;11.20;;;4.40;99.90;;;;;;4379597;32;20185;-61
2021/04/24 04:19:31;;;;;;;20.90;10.37;;;4.40;99.90;;;;;;4375712;32;20215;-62
2021/04/24 04:21:58;;;;;;;29.10;13.23;;;4.40;99.90;;;;;;4379195;32;20247;-60
2021/04/24 04:24:24;;;;;;;23.87;11.37;;;4.40;99.90;;;;;;4381498;32;20187;-59
2021/04/24 04:26:52;;;;;;;27.13;12.07;;;4.40;99.90;;;;;;4385767;32;20249;-60
2021/04/24 04:29:18;;;;;;;26.37;12.17;;;4.40;99.90;;;;;;4380359;32;20230;-59
2021/04/24 04:31:46;;;;;;;21.60;12.50;;;4.50;99.90;;;;;;4382440;32;20256;-65
2021/04/24 04:34:12;;;;;;;26.63;12.27;;;4.50;99.90;;;;;;4382812;32;20180;-64
2021/04/24 04:36:39;;;;;;;26.87;12.63;;;4.50;99.90;;;;;;4387493;32;20247;-62
2021/04/24 04:39:06;;;;;;;26.47;12.23;;;4.50;99.90;;;;;;4375610;32;20216;-62
2021/04/24 04:41:32;;;;;;;27.23;13.40;;;4.60;99.90;;;;;;4375233;32;20168;-62
2021/04/24 04:43:58;;;;;;;24.37;12.07;;;4.60;99.90;;;;;;4382706;32;20646;-62
2021/04/24 04:46:25;;;;;;;28.27;12.37;;;4.60;99.90;;;;;;4390146;32;20156;-61
2021/04/24 04:48:52;;;;;;;31.53;11.83;;;4.70;99.90;;;;;;4387692;32;20175;-59
2021/04/24 04:51:21;;;;;;;27.60;12.33;;;4.70;99.90;;;;;;4390382;32;20685;-62
2021/04/24 04:53:47;;;;;;;27.17;12.37;;;4.80;99.90;;;;;;4380295;32;20609;-62
2021/04/24 04:56:13;;;;;;;30.20;12.73;;;4.80;99.90;;;;;;4383242;32;20231;-60
2021/04/24 04:58:40;;;;;;;28.87;12.50;;;4.90;99.70;;;;;;4376961;32;20164;-61
2021/04/24 05:01:06;;;;;;;26.83;12.37;;;5.00;99.90;;;;;;4386798;32;20183;-57
2021/04/24 05:03:33;;;;;;;24.30;13.30;;;5.10;99.90;;;;;;4382425;32;20208;-60
2021/04/24 05:06:01;;;;;;;25.57;12.50;;;5.20;99.80;;;;;;4384022;32;20211;-63
2021/04/24 05:08:27;;;;;;;20.67;12.03;;;5.60;99.60;;;;;;4387196;32;20239;-61
2021/04/24 05:10:53;;;;;;;23.33;11.93;;;6.10;99.00;;;;;;4374647;32;20523;-61
2021/04/24 05:13:20;;;;;;;29.47;12.97;;;6.50;98.00;;;;;;4383697;32;20191;-63
2021/04/24 05:15:46;;;;;;;24.43;12.43;;;6.90;97.30;;;;;;4379875;32;20213;-61
2021/04/24 05:18:12;;;;;;;23.43;12.13;;;7.30;96.30;;;;;;4376131;32;20541;-62
2021/04/24 05:20:40;;;;;;;24.90;12.37;;;7.60;95.50;;;;;;4382805;32;20235;-60
2021/04/24 05:23:07;;;;;;;29.20;13.97;;;7.90;95.20;;;;;;4379911;32;20591;-63
2021/04/24 05:25:34;;;;;;;28.30;13.47;;;8.40;94.20;;;;;;4376146;32;20199;-62
2021/04/24 05:28:00;;;;;;;26.77;12.17;;;8.70;93.20;;;;;;4376368;32;20227;-63
2021/04/24 05:30:27;;;;;;;26.07;12.30;;;8.90;92.70;;;;;;4388389;32;20168;-63
2021/04/24 05:32:55;;;;;;;23.50;12.80;;;9.10;92.20;;;;;;4387825;32;20659;-59
2021/04/24 05:35:23;;;;;;;23.13;13.00;;;9.20;92.10;;;;;;4389784;32;20174;-61
2021/04/24 05:37:49;;;;;;;30.30;12.90;;;9.00;92.10;;;;;;4384352;32;20216;-61
2021/04/24 05:40:18;;;;;;;24.10;13.17;;;8.60;92.40;;;;;;4382942;32;20255;-60
2021/04/24 05:42:45;;;;;;;23.00;12.57;;;8.10;93.20;;;;;;4385168;32;20548;-62
2021/04/24 05:45:13;;;;;;;21.63;12.37;;;7.90;93.80;;;;;;4378773;32;20659;-62
2021/04/24 05:47:41;;;;;;;24.70;11.97;;;7.90;94.10;;;;;;4383060;32;20608;-61
2021/04/24 05:50:09;;;;;;;22.60;11.47;;;7.80;94.30;;;;;;4383977;32;20195;-63
2021/04/24 05:52:36;;;;;;;24.07;13.00;;;7.80;94.40;;;;;;4386166;32;20510;-61
2021/04/24 05:55:03;;;;;;;23.93;12.57;;;7.80;94.20;;;;;;4383696;32;20152;-62
2021/04/24 05:57:31;;;;;;;23.33;13.07;;;7.80;94.30;;;;;;4381278;32;20656;-64
2021/04/24 05:59:58;;;;;;;24.33;11.83;;;8.20;94.40;;;;;;4377466;32;20671;-63
2021/04/24 06:02:24;;;;;;;20.33;11.63;;;9.30;93.40;;;;;;4377090;32;20267;-61
2021/04/24 06:04:50;;;;;;;25.03;12.13;;;9.90;91.70;;;;;;4379235;32;20216;-62
2021/04/24 06:07:16;;;;;;;21.60;11.77;;;9.70;91.40;;;;;;4381040;32;20533;-62
2021/04/24 06:09:43;;;;;;;20.77;12.67;;;9.40;91.70;;;;;;4377942;32;20191;-60
2021/04/24 06:12:09;;;;;;;21.97;11.47;;;9.10;92.00;;;;;;4381276;32;20616;-64
2021/04/24 06:14:40;;;;;;;20.53;10.80;;;9.10;92.40;;;;;;4381741;32;20216;-60
2021/04/24 06:17:06;;;;;;;20.70;11.37;;;9.20;92.80;;;;;;4377270;32;20625;-61
2021/04/24 06:19:35;;;;;;;21.00;11.23;;;9.40;92.00;;;;;;4380498;32;20278;-61
2021/04/24 06:22:01;;;;;;;25.33;11.83;;;9.60;92.10;;;;;;4379958;32;20223;-62
2021/04/24 06:24:27;;;;;;;22.20;11.17;;;9.90;92.00;;;;;;4381221;32;20775;-62
2021/04/24 06:26:54;;;;;;;19.20;10.20;;;10.10;91.00;;;;;;4381990;32;20617;-63
2021/04/24 06:29:20;;;;;;;21.83;10.60;;;9.90;90.60;;;;;;4377225;32;20248;-63
2021/04/24 06:31:47;;;;;;;20.33;9.30;;;9.80;91.10;;;;;;4380679;32;20549;-61
2021/04/24 06:34:14;;;;;;;18.47;9.40;;;9.80;91.10;;;;;;4380014;32;20209;-62
2021/04/24 06:36:40;;;;;;;16.63;8.50;;;9.90;91.10;;;;;;4380000;32;20224;-61
2021/04/24 06:39:08;;;;;;;13.43;8.47;;;10.20;90.40;;;;;;4381194;32;20199;-62
2021/04/24 06:41:35;;;;;;;21.40;8.97;;;10.30;90.40;;;;;;4379555;32;20252;-64
2021/04/24 06:44:03;;;;;;;17.33;8.63;;;10.50;90.30;;;;;;4384391;32;20156;-62
2021/04/24 06:46:30;;;;;;;15.00;8.20;;;10.80;89.90;;;;;;4380687;32;20196;-62
2021/04/24 06:48:57;;;;;;;11.60;7.53;;;11.00;88.90;;;;;;4377071;32;20252;-60
2021/04/24 06:51:23;;;;;;;13.73;7.80;;;11.00;87.50;;;;;;4378252;32;20187;-61
2021/04/24 06:53:51;;;;;;;12.67;7.30;;;11.20;87.50;;;;;;4384713;32;20529;-62
2021/04/24 06:56:18;;;;;;;17.70;8.10;;;11.20;87.20;;;;;;4384608;32;20211;-62
2021/04/24 06:58:44;;;;;;;11.27;6.77;;;11.60;86.80;;;;;;4382586;32;20554;-64
2021/04/24 07:01:19;;;;;;;12.23;6.70;;;12.10;85.00;;;;;;4380219;32;21022;-60
2021/04/24 07:03:45;;;;;;;16.57;6.97;;;12.60;82.90;;;;;;4384169;32;20183;-62
2021/04/24 07:06:12;;;;;;;9.53;6.97;;;12.60;81.40;;;;;;4381394;32;20209;-64
2021/04/24 07:08:39;;;;;;;13.30;6.60;;;12.60;80.60;;;;;;4379633;32;20157;-60
2021/04/24 07:11:05;;;;;;;11.17;7.17;;;12.70;80.10;;;;;;4386512;32;20214;-59
2021/04/24 07:13:32;;;;;;;11.27;6.47;;;12.70;78.90;;;;;;4381630;32;20525;-62
2021/04/24 07:16:02;;;;;;;11.83;6.50;;;12.50;78.30;;;;;;4383120;32;20158;-61
2021/04/24 07:18:28;;;;;;;11.17;6.50;;;13.00;76.60;;;;;;4378354;32;20276;-59
2021/04/24 07:20:55;;;;;;;13.00;6.43;;;15.10;72.60;;;;;;4380906;32;20282;-60
2021/04/24 07:23:22;;;;;;;10.77;6.27;;;18.40;64.20;;;;;;4383713;32;20470;-62
2021/04/24 07:25:48;;;;;;;7.90;5.17;;;21.60;52.30;;;;;;4381516;32;20566;-64
2021/04/24 07:28:16;;;;;;;10.60;6.30;;;25.20;44.70;;;;;;4380504;32;20208;-61
2021/04/24 07:30:42;;;;;;;12.33;5.90;;;27.20;38.00;;;;;;4382958;32;20220;-60
2021/04/24 07:33:09;;;;;;;11.20;6.80;;;29.80;35.80;;;;;;4386267;32;20337;-64
2021/04/24 07:35:36;;;;;;;9.10;5.73;;;30.80;33.10;;;;;;4384659;32;20223;-62
2021/04/24 07:38:05;;;;;;;10.20;5.87;;;30.80;32.30;;;;;;4376961;32;20208;-60
2021/04/24 07:40:32;;;;;;;6.67;5.67;;;30.10;32.90;;;;;;4382362;32;20225;-62
2021/04/24 07:42:59;;;;;;;11.53;6.30;;;31.20;31.70;;;;;;4387319;32;20251;-62
2021/04/24 07:45:25;;;;;;;8.57;6.17;;;31.60;30.70;;;;;;4383255;32;20178;-60
2021/04/24 07:47:52;;;;;;;9.03;5.37;;;32.00;30.90;;;;;;4382885;32;20234;-62
2021/04/24 07:50:18;;;;;;;7.87;5.40;;;33.30;30.30;;;;;;4376353;32;20168;-62
2021/04/24 07:52:45;;;;;;;13.30;5.13;;;31.30;30.00;;;;;;4377698;32;20217;-64
2021/04/24 07:55:11;;;;;;;7.13;4.80;;;31.90;30.10;;;;;;4381821;32;20216;-59
2021/04/24 07:57:39;;;;;;;9.95;5.03;;;33.80;29.40;;;;;;4379333;32;20613;-60
2021/04/24 08:00:09;;;;;;;7.05;4.70;;;35.20;28.50;;;;;;4379038;32;20202;-64
2021/04/24 08:02:35;;;;;;;7.47;4.75;;;35.50;28.20;;;;;;4379705;32;20179;-61
2021/04/24 08:05:03;;;;;;;7.80;4.15;;;35.60;27.80;;;;;;4388133;32;20156;-62
2021/04/24 08:07:30;;;;;;;6.82;4.10;;;33.00;28.10;;;;;;4378399;32;20195;-60
2021/04/24 08:09:58;;;;;;;6.07;4.23;;;30.60;28.40;;;;;;4383412;32;20172;-64
2021/04/24 08:12:25;;;;;;;6.60;3.87;;;30.40;29.20;;;;;;4380234;32;20264;-64
2021/04/24 08:14:52;;;;;;;6.70;4.03;;;28.90;29.90;;;;;;4379694;32;24343;-59
2021/04/24 08:17:18;;;;;;;4.70;3.90;;;29.00;30.50;;;;;;4382749;32;20239;-62
2021/04/24 08:19:44;;;;;;;4.93;3.70;;;28.40;29.80;;;;;;4379668;32;20710;-64
2021/04/24 08:22:11;;;;;;;5.33;3.93;;;29.50;30.00;;;;;;4381181;32;20207;-63
2021/04/24 08:24:37;;;;;;;5.60;3.77;;;31.20;29.60;;;;;;4379498;32;20586;-64
2021/04/24 08:27:04;;;;;;;5.20;3.80;;;31.40;28.30;;;;;;4380256;32;20625;-64
2021/04/24 08:29:30;;;;;;;7.97;3.70;;;31.80;28.60;;;;;;4382075;32;20172;-63
2021/04/24 08:31:57;;;;;;;6.45;3.42;;;33.10;28.40;;;;;;4382181;32;20180;-60
2021/04/24 08:34:26;;;;;;;5.47;3.33;;;34.80;27.30;;;;;;4382331;32;20556;-62
2021/04/24 08:36:53;;;;;;;3.80;3.22;;;34.10;26.70;;;;;;4381457;32;20170;-60
2021/04/24 08:39:20;;;;;;;5.73;3.27;;;33.80;27.50;;;;;;4378593;32;20302;-59
2021/04/24 08:41:46;;;;;;;5.32;3.08;;;35.20;27.00;;;;;;4384437;32;20585;-62
2021/04/24 08:44:14;;;;;;;5.07;2.87;;;34.90;26.10;;;;;;4381323;32;20216;-59
2021/04/24 08:46:41;;;;;;;6.05;3.25;;;34.70;26.60;;;;;;4381514;32;20430;-62
2021/04/24 08:49:08;;;;;;;3.42;2.83;;;34.10;26.70;;;;;;4384154;32;20278;-62
2021/04/24 08:51:35;;;;;;;4.35;2.80;;;33.20;27.00;;;;;;4378957;32;20191;-63
2021/04/24 08:54:01;;;;;;;5.60;4.13;;;32.00;27.10;;;;;;4381271;32;20655;-61
2021/04/24 08:56:28;;;;;;;9.03;3.57;;;30.50;27.90;;;;;;4379995;32;20157;-61
2021/04/24 08:58:56;;;;;;;6.53;3.83;;;30.10;28.20;;;;;;4379291;32;20498;-59
2021/04/24 09:01:23;;;;;;;4.97;3.80;;;29.20;28.90;;;;;;4379840;32;20168;-61
2021/04/24 09:03:50;;;;;;;5.67;3.43;;;28.30;29.40;;;;;;4381470;32;20200;-64
2021/04/24 09:06:21;;;;;;;4.53;3.30;;;29.30;29.80;;;;;;4377591;32;20513;-61
2021/04/24 09:08:55;;;;;;;4.47;3.10;;;30.20;28.70;;;;;;4382775;32;20152;-65
2021/04/24 09:11:22;;;;;;;7.03;2.60;;;31.10;28.00;;;;;;4382455;32;20587;-61
2021/04/24 09:14:02;;;;;;;4.97;2.53;;;31.00;27.40;;;;;;4385539;32;20182;-62
2021/04/24 09:16:28;;;;;;;5.90;3.33;;;28.20;29.00;;;;;;4383250;32;20149;-62
2021/04/24 09:18:56;;;;;;;4.87;3.40;;;25.20;30.90;;;;;;4385759;32;20155;-61
2021/04/24 09:21:26;;;;;;;3.80;2.97;;;22.80;34.00;;;;;;4384048;32;20219;-61
2021/04/24 09:23:52;;;;;;;4.93;3.00;;;20.60;36.40;;;;;;4385883;32;20152;-59
2021/04/24 09:26:23;;;;;;;6.30;3.00;;;18.80;38.80;;;;;;4378742;32;20320;-60
2021/04/24 09:28:59;;;;;;;5.80;3.43;;;17.10;40.90;;;;;;4379938;32;20243;-64
2021/04/24 09:31:29;;;;;;;3.40;2.60;;;16.10;45.20;;;;;;4385112;32;20152;-60
2021/04/24 09:33:57;;;;;;;4.87;3.07;;;15.80;46.70;;;;;;4385115;32;20663;-60
2021/04/24 09:36:32;;;;;;;5.67;3.00;;;15.70;47.80;;;;;;4384662;32;20174;-60
2021/04/24 09:39:02;;;;;;;7.70;3.17;;;15.70;49.60;;;;;;4394143;32;20239;-63
2021/04/24 09:41:34;;;;;;;5.03;3.07;;;15.50;50.80;;;;;;4384121;32;20176;-60
2021/04/24 09:44:16;;;;;;;4.93;2.80;;;15.30;51.00;;;;;;4392454;32;20156;-61
2021/04/24 09:46:52;;;;;;;4.20;2.90;;;15.20;52.30;;;;;;4392584;32;20168;-60
2021/04/24 09:49:21;;;;;;;5.40;2.83;;;15.30;51.10;;;;;;4392402;32;20167;-63
2021/04/24 09:51:50;;;;;;;6.10;3.47;;;14.90;52.60;;;;;;4386526;32;20210;-63
2021/04/24 09:54:18;;;;;;;8.67;3.60;;;14.60;53.10;;;;;;4382421;32;20160;-63
2021/04/24 09:56:57;;;;;;;4.43;3.43;;;14.20;55.30;;;;;;4383075;32;20218;-64
2021/04/24 09:59:23;;;;;;;7.40;3.67;;;14.30;55.40;;;;;;4381656;32;20608;-65
2021/04/24 10:01:57;;;;;;;6.73;3.87;;;14.50;57.10;;;;;;4382184;32;20215;-63
2021/04/24 10:04:24;;;;;;;7.40;4.63;;;14.80;57.90;;;;;;4383656;32;20156;-63
2021/04/24 10:06:54;;;;;;;10.00;4.10;;;14.90;57.90;;;;;;4384687;32;20175;-61
2021/04/24 10:09:23;;;;;;;7.97;4.37;;;14.60;56.70;;;;;;4380028;32;20264;-61
2021/04/24 10:12:09;;;;;;;7.33;4.13;;;15.10;58.10;;;;;;4377558;32;20180;-59
2021/04/24 10:14:39;;;;;;;8.30;4.63;;;15.50;54.60;;;;;;4378320;32;20242;-59
2021/04/24 10:17:10;;;;;;;6.60;4.07;;;15.90;53.80;;;;;;4377432;32;20235;-60
2021/04/24 10:19:40;;;;;;;6.27;4.37;;;15.60;54.30;;;;;;4385015;32;20156;-60
2021/04/24 10:22:09;;;;;;;6.93;3.73;;;15.70;53.70;;;;;;4383214;32;20172;-63
2021/04/24 10:24:37;;;;;;;6.93;3.83;;;15.50;55.10;;;;;;4377514;32;20159;-62
2021/04/24 10:27:05;;;;;;;6.83;3.43;;;15.80;54.40;;;;;;4380669;32;20513;-62
2021/04/24 10:29:31;;;;;;;6.87;4.70;;;15.60;54.60;;;;;;4384767;32;20168;-60
2021/04/24 10:31:58;;;;;;;6.83;4.17;;;15.60;54.10;;;;;;4379567;32;20177;-61
2021/04/24 10:34:25;;;;;;;10.20;4.17;;;15.60;53.80;;;;;;4380025;32;20186;-61
2021/04/24 10:36:52;;;;;;;7.63;4.07;;;15.70;54.40;;;;;;4380831;32;20180;-60
2021/04/24 10:39:25;;;;;;;5.63;3.90;;;15.50;51.10;;;;;;4388180;32;20528;-59
2021/04/24 10:42:09;;;;;;;8.23;4.30;;;15.20;52.40;;;;;;4390960;32;20161;-61
2021/04/24 10:44:50;;;;;;;7.03;4.40;;;15.50;53.60;;;;;;4384317;32;20170;-60
2021/04/24 10:47:55;;;;;;;6.20;4.00;;;16.00;52.90;;;;;;4380116;32;20188;-59
2021/04/24 10:50:23;;;;;;;6.20;4.10;;;16.20;47.40;;;;;;4375534;32;20156;-61
2021/04/24 10:52:51;;;;;;;6.77;4.30;;;16.00;48.60;;;;;;4378767;32;20197;-62
2021/04/24 10:55:26;;;;;;;8.13;4.30;;;16.20;47.30;;;;;;4384344;32;20543;-59
2021/04/24 10:57:55;;;;;;;7.90;4.60;;;16.40;48.00;;;;;;4382005;32;20294;-61
2021/04/24 11:00:24;;;;;;;7.33;3.80;;;16.20;47.50;;;;;;4376612;32;20234;-61
2021/04/24 11:02:51;;;;;;;6.60;4.00;;;16.00;46.80;;;;;;4381867;32;20163;-60
2021/04/24 11:05:26;;;;;;;5.17;4.23;;;15.80;47.00;;;;;;4381720;32;20177;-64
2021/04/24 11:08:25;;;;;;;8.70;4.17;;;15.80;48.10;;;;;;4388171;32;20179;-59
2021/04/24 11:11:07;;;;;;;8.47;4.47;;;15.90;50.20;;;;;;4383626;32;20188;-63
2021/04/24 11:13:36;;;;;;;7.93;5.00;;;16.10;51.70;;;;;;4382220;32;20250;-63
2021/04/24 11:16:08;;;;;;;9.77;5.10;;;16.10;50.70;;;;;;4381795;32;20186;-60
2021/04/24 11:18:39;;;;;;;9.97;4.87;;;15.80;52.30;;;;;;4382192;32;20191;-60
2021/04/24 11:21:06;;;;;;;7.40;5.13;;;15.60;53.30;;;;;;4381680;32;20461;-58
2021/04/24 11:23:42;;;;;;;11.97;4.73;;;15.70;54.20;;;;;;4382048;32;20203;-61
2021/04/24 11:26:11;;;;;;;8.13;4.47;;;15.60;54.50;;;;;;4381254;32;20178;-61
2021/04/24 11:29:01;;;;;;;8.17;5.33;;;15.90;54.80;;;;;;4390620;32;20216;-60
2021/04/24 11:31:50;;;;;;;8.27;5.20;;;16.10;54.70;;;;;;4390022;32;20175;-61
2021/04/24 11:34:42;;;;;;;11.83;5.20;;;16.30;53.30;;;;;;4388493;32;20179;-61
2021/04/24 11:37:35;;;;;;;10.00;5.60;;;16.20;54.00;;;;;;4376367;32;20179;-60
2021/04/24 11:40:26;;;;;;;9.37;5.80;;;16.00;55.20;;;;;;4381164;32;20183;-60
2021/04/24 11:43:00;;;;;;;8.47;4.80;;;16.10;54.70;;;;;;4385002;32;20183;-61
2021/04/24 11:46:08;;;;;;;8.87;4.97;;;15.90;54.60;;;;;;4383707;32;20215;-60
2021/04/24 11:49:03;;;;;;;9.90;5.43;;;16.20;55.00;;;;;;4376663;32;20170;-61
2021/04/24 11:51:32;;;;;;;8.20;5.40;;;16.00;55.10;;;;;;4388628;32;20237;-61
2021/04/24 11:53:59;;;;;;;10.03;6.20;;;15.60;54.20;;;;;;4389704;32;20625;-61
2021/04/24 11:56:27;;;;;;;10.13;5.33;;;15.80;56.70;;;;;;4388416;32;20257;-61
2021/04/24 11:58:55;;;;;;;14.07;7.23;;;16.00;56.50;;;;;;4381769;32;20204;-61
2021/04/24 12:01:23;;;;;;;9.90;5.33;;;15.90;57.50;;;;;;4385046;32;20152;-61
2021/04/24 12:03:49;;;;;;;10.13;5.03;;;15.60;58.80;;;;;;4376990;32;20644;-60
2021/04/24 12:06:33;;;;;;;11.57;5.70;;;15.50;55.80;;;;;;4375316;32;20208;-60
2021/04/24 12:09:03;;;;;;;10.63;5.73;;;15.30;57.60;;;;;;4390327;32;20193;-61
2021/04/24 12:11:30;;;;;;;9.57;5.80;;;15.50;56.40;;;;;;4386036;32;20551;-61
2021/04/24 12:13:57;;;;;;;11.70;5.87;;;15.70;57.30;;;;;;4379866;32;20221;-60
2021/04/24 12:16:40;;;;;;;8.23;6.10;;;15.90;55.60;;;;;;4384617;32;20580;-60
2021/04/24 12:19:32;;;;;;;10.13;5.73;;;15.90;56.10;;;;;;4390217;32;20612;-59
2021/04/24 12:22:11;;;;;;;12.97;5.87;;;15.60;56.10;;;;;;4378341;32;20202;-60
2021/04/24 12:25:00;;;;;;;10.10;5.70;;;15.50;57.10;;;;;;4381433;32;20172;-61
2021/04/24 12:27:34;;;;;;;14.27;6.13;;;15.20;58.40;;;;;;4382832;32;20152;-61
2021/04/24 12:30:05;;;;;;;10.50;6.30;;;15.30;59.70;;;;;;4387879;32;20548;-61
2021/04/24 12:32:34;;;;;;;11.33;6.53;;;15.40;59.40;;;;;;4382542;32;20522;-61
2021/04/24 12:35:15;;;;;;;11.03;5.90;;;15.40;58.80;;;;;;4380012;32;20242;-61
2021/04/24 12:37:43;;;;;;;10.20;5.93;;;15.30;56.20;;;;;;4380411;32;20245;-61
2021/04/24 12:40:16;;;;;;;9.97;6.30;;;15.30;59.00;;;;;;4373589;32;20212;-60
2021/04/24 12:42:43;;;;;;;9.47;5.60;;;15.30;59.70;;;;;;4378240;32;20219;-60
2021/04/24 12:45:17;;;;;;;9.27;6.10;;;15.20;59.90;;;;;;4380956;32;20195;-59
2021/04/24 12:47:45;;;;;;;13.73;6.53;;;15.10;59.10;;;;;;4376326;32;20530;-59
2021/04/24 12:50:18;;;;;;;9.40;6.67;;;15.20;59.30;;;;;;4376701;32;20253;-60
2021/04/24 12:52:48;;;;;;;14.37;6.43;;;15.10;60.40;;;;;;4377592;32;20168;-60